< < Back
Terminal Aerodrome Forecast


Current Version              Previous Versions:   1  2  3  4  5  6  7  8  9  

Terminal Aerodrome Forecast

906
FTUS42 KJAX 282300
TAFGNV
TAF
KGNV 282338Z 2900/2924 VRB03KT P6SM SKC
     FM291600 13007KT P6SM SCT040 SCT070
     FM291900 16008KT P6SM VCTS BKN030CB BKN070 BKN120=



Latest METAR

966
SAUS70 KWBC 291000 RRG
MTRGNV
METAR KGNV 290953Z 00000KT 9SM CLR 22/22 A3001 RMK AO2 SLP160
T02220217


USA.gov is the U.S. government's official web portal to all federal, state and local government web resources and services.